createdAt,value
2023-02-25T00:02:27.718Z,56.85
2023-02-25T00:05:00.329Z,56.52
2023-02-25T00:07:29.004Z,56.62
2023-02-25T00:10:07.272Z,56.46
2023-02-25T00:12:38.641Z,56.31
2023-02-25T00:15:10.080Z,56.09
2023-02-25T00:17:45.270Z,55.50
2023-02-25T00:20:20.952Z,55.37
2023-02-25T00:22:54.339Z,55.20
2023-02-25T00:25:40.346Z,55.05
2023-02-25T00:28:10.014Z,54.78
2023-02-25T00:30:53.818Z,54.65
2023-02-25T00:33:26.560Z,54.81
2023-02-25T00:35:59.910Z,54.71
2023-02-25T00:38:29.896Z,54.45
2023-02-25T00:41:00.999Z,54.29
2023-02-25T00:43:43.248Z,54.56
2023-02-25T00:46:16.304Z,54.05
2023-02-25T00:48:50.628Z,53.35
2023-02-25T00:51:22.386Z,53.76
2023-02-25T00:53:51.966Z,53.96
2023-02-25T00:56:22.001Z,53.79
2023-02-25T00:58:51.840Z,53.63
2023-02-25T01:01:23.928Z,53.64
2023-02-25T01:03:52.829Z,53.50
2023-02-25T01:06:21.965Z,53.63
2023-02-25T01:08:51.635Z,53.71
2023-02-25T01:11:29.791Z,53.63
2023-02-25T01:14:09.032Z,53.45
2023-02-25T01:16:43.755Z,53.62
2023-02-25T01:19:17.398Z,53.81
2023-02-25T01:21:46.476Z,53.86
2023-02-25T01:24:18.707Z,53.73
2023-02-25T01:26:52.016Z,53.87
2023-02-25T01:29:23.734Z,53.93
2023-02-25T01:31:55.074Z,54.17
2023-02-25T01:34:24.757Z,53.55
2023-02-25T01:37:06.621Z,53.25
2023-02-25T01:39:38.742Z,53.28
2023-02-25T01:42:20.721Z,53.43
2023-02-25T01:45:26.625Z,53.68
2023-02-25T01:47:58.167Z,53.76
2023-02-25T01:50:36.161Z,53.53
2023-02-25T01:53:04.786Z,53.69
2023-02-25T01:55:34.673Z,53.61
2023-02-25T01:58:12.469Z,53.73
2023-02-25T02:00:58.096Z,53.66
2023-02-25T02:03:27.248Z,53.80
2023-02-25T02:06:03.461Z,54.00
2023-02-25T02:08:33.925Z,53.95
2023-02-25T02:11:06.847Z,54.01
2023-02-25T02:13:42.428Z,54.14
2023-02-25T02:16:25.881Z,54.30
2023-02-25T02:19:03.513Z,54.30
2023-02-25T02:21:56.920Z,54.57
2023-02-25T02:24:49.830Z,54.40
2023-02-25T02:27:22.227Z,54.31
2023-02-25T02:30:05.148Z,54.01
2023-02-25T02:32:39.393Z,53.79
2023-02-25T02:35:17.061Z,53.81
2023-02-25T02:37:48.905Z,53.43
2023-02-25T02:40:24.079Z,53.61
2023-02-25T02:43:00.487Z,53.45
2023-02-25T02:45:42.494Z,53.62
2023-02-25T02:48:15.194Z,53.40
2023-02-25T02:50:45.814Z,53.36
2023-02-25T02:53:20.584Z,53.29
2023-02-25T02:55:50.409Z,53.02
2023-02-25T02:58:19.573Z,53.33
2023-02-25T03:00:49.821Z,53.38
2023-02-25T03:03:23.240Z,53.08
2023-02-25T03:05:52.210Z,53.31
2023-02-25T03:08:22.913Z,53.07
2023-02-25T03:10:51.885Z,53.04
2023-02-25T03:13:27.029Z,52.55
2023-02-25T03:16:16.903Z,52.68
2023-02-25T03:18:51.554Z,52.47
2023-02-25T03:21:27.962Z,52.56
2023-02-25T03:23:58.252Z,52.63
2023-02-25T03:26:30.181Z,52.53
2023-02-25T03:29:02.951Z,52.59
2023-02-25T03:31:35.126Z,52.91
2023-02-25T03:34:08.407Z,52.58
2023-02-25T03:36:40.687Z,52.73
2023-02-25T03:39:12.893Z,52.80
2023-02-25T03:41:48.267Z,52.66
2023-02-25T03:44:26.257Z,52.64
2023-02-25T03:46:55.274Z,52.70
2023-02-25T03:49:31.856Z,52.53
2023-02-25T03:52:01.929Z,52.47
2023-02-25T03:54:31.617Z,52.88
2023-02-25T03:57:04.879Z,52.80
2023-02-25T03:59:38.240Z,52.64
2023-02-25T04:02:20.616Z,52.45
2023-02-25T04:04:51.672Z,52.59
2023-02-25T04:07:21.553Z,52.72
2023-02-25T04:09:51.581Z,52.60
2023-02-25T04:12:23.481Z,52.25
2023-02-25T04:14:58.965Z,52.24
2023-02-25T04:17:28.841Z,52.45
2023-02-25T04:19:59.380Z,52.60
2023-02-25T04:22:27.475Z,52.51
2023-02-25T04:24:55.478Z,52.47
2023-02-25T04:27:24.603Z,52.42
2023-02-25T04:29:53.798Z,52.33
2023-02-25T04:32:26.193Z,52.39
2023-02-25T04:34:58.047Z,52.40
2023-02-25T04:37:28.195Z,52.59
2023-02-25T04:39:59.771Z,52.62
2023-02-25T04:42:30.580Z,52.44
2023-02-25T04:45:00.956Z,52.39
2023-02-25T04:47:29.456Z,52.60
2023-02-25T04:50:01.870Z,52.44
2023-02-25T04:52:41.564Z,52.33
2023-02-25T04:55:13.732Z,52.48
2023-02-25T04:57:49.782Z,52.47
2023-02-25T05:00:24.318Z,52.48
2023-02-25T05:02:55.826Z,52.51
2023-02-25T05:05:25.701Z,52.25
2023-02-25T05:07:57.902Z,52.29
2023-02-25T05:10:28.227Z,52.22
2023-02-25T05:12:58.088Z,52.18
2023-02-25T05:15:29.164Z,52.27
2023-02-25T05:17:57.989Z,52.20
2023-02-25T05:20:26.859Z,52.17
2023-02-25T05:22:57.712Z,52.08
2023-02-25T05:25:27.213Z,52.06
2023-02-25T05:28:00.713Z,51.75
2023-02-25T05:30:29.282Z,52.10
2023-02-25T05:32:57.486Z,51.80
2023-02-25T05:35:29.002Z,52.24
2023-02-25T05:38:01.905Z,52.12
2023-02-25T05:40:32.063Z,52.03
2023-02-25T05:43:04.457Z,51.86
2023-02-25T05:45:38.464Z,52.34
2023-02-25T05:48:14.254Z,51.98
2023-02-25T05:50:43.930Z,52.07
2023-02-25T05:53:19.669Z,51.98
2023-02-25T05:55:48.195Z,52.01
2023-02-25T05:58:16.625Z,52.22
2023-02-25T06:00:46.690Z,52.09
2023-02-25T06:03:15.881Z,51.96
2023-02-25T06:05:45.688Z,51.92
2023-02-25T06:08:24.426Z,51.94
2023-02-25T06:10:53.184Z,52.22
2023-02-25T06:13:33.903Z,51.95
2023-02-25T06:16:31.046Z,52.03
2023-02-25T06:22:49.556Z,51.84
2023-02-25T06:25:21.112Z,51.87
2023-02-25T06:27:50.113Z,52.01
2023-02-25T06:30:21.443Z,52.09
2023-02-25T06:32:51.149Z,51.91
2023-02-25T06:35:23.498Z,51.87
2023-02-25T06:37:51.786Z,51.71
2023-02-25T06:41:07.151Z,51.96
2023-02-25T06:52:46.900Z,51.98
2023-02-25T06:56:17.313Z,52.34
2023-02-25T06:58:52.523Z,51.94
2023-02-25T07:01:21.616Z,51.97
2023-02-25T07:03:54.285Z,51.90
2023-02-25T07:06:30.410Z,52.00
2023-02-25T07:09:07.717Z,52.27
2023-02-25T07:11:43.063Z,52.02
2023-02-25T07:14:20.725Z,52.05
2023-02-25T07:16:52.186Z,52.24
2023-02-25T07:19:24.808Z,51.93
2023-02-25T07:21:54.451Z,51.81
2023-02-25T07:24:27.784Z,52.20
2023-02-25T07:26:58.891Z,52.08
2023-02-25T07:29:32.007Z,52.03
2023-02-25T07:32:01.488Z,52.21
2023-02-25T07:34:32.517Z,52.27
2023-02-25T07:37:01.247Z,52.06
2023-02-25T07:39:32.128Z,52.35
2023-02-25T07:42:08.743Z,52.32
2023-02-25T07:44:38.420Z,52.46
2023-02-25T07:47:14.121Z,52.35
2023-02-25T07:49:48.659Z,52.34
2023-02-25T07:52:19.770Z,52.48
2023-02-25T07:54:52.046Z,52.52
2023-02-25T07:57:21.024Z,52.62
2023-02-25T07:59:49.178Z,52.37
2023-02-25T08:02:18.987Z,52.50
2023-02-25T08:04:50.040Z,52.52
2023-02-25T08:07:21.642Z,52.63
2023-02-25T08:09:59.727Z,52.61
2023-02-25T08:12:28.577Z,52.53
2023-02-25T08:15:06.220Z,52.55
2023-02-25T08:17:35.766Z,52.13
2023-02-25T08:20:06.042Z,52.41
2023-02-25T08:22:36.886Z,52.31
2023-02-25T08:25:10.785Z,52.44
2023-02-25T08:27:40.071Z,52.24
2023-02-25T08:30:16.218Z,52.28
2023-02-25T08:33:02.975Z,52.17
2023-02-25T08:35:34.337Z,52.27
2023-02-25T08:38:14.586Z,52.10
2023-02-25T08:40:45.009Z,52.10
2023-02-25T08:43:21.115Z,52.07
2023-02-25T08:45:49.648Z,51.99
2023-02-25T08:48:17.702Z,51.36
2023-02-25T08:50:48.016Z,51.82
2023-02-25T08:53:21.207Z,51.79
2023-02-25T08:55:55.730Z,51.83
2023-02-25T08:58:30.866Z,51.61
2023-02-25T09:01:00.704Z,51.56
2023-02-25T09:03:36.608Z,51.67
2023-02-25T09:06:09.704Z,51.47
2023-02-25T09:08:40.265Z,51.19
2023-02-25T09:11:14.407Z,51.30
2023-02-25T09:13:46.704Z,50.88
2023-02-25T09:16:28.203Z,50.33
2023-02-25T09:19:18.470Z,50.60
2023-02-25T09:21:49.854Z,49.98
2023-02-25T09:24:19.634Z,49.78
2023-02-25T09:26:56.443Z,49.67
2023-02-25T09:29:29.671Z,49.42
2023-02-25T09:32:09.331Z,48.73
2023-02-25T09:34:44.387Z,49.18
2023-02-25T09:37:19.712Z,48.46
2023-02-25T09:39:55.845Z,47.85
2023-02-25T09:42:35.805Z,47.71
2023-02-25T09:45:14.424Z,47.30
2023-02-25T09:47:49.306Z,47.62
2023-02-25T09:50:28.374Z,47.51
2023-02-25T09:53:04.280Z,46.91
2023-02-25T09:55:38.186Z,46.45
2023-02-25T09:58:45.197Z,46.57
2023-02-25T10:01:23.600Z,46.27
2023-02-25T10:03:58.955Z,45.88
2023-02-25T10:09:23.628Z,45.84
2023-02-25T10:15:52.352Z,45.24
2023-02-25T10:18:57.501Z,45.62
2023-02-25T10:21:37.608Z,44.63
2023-02-25T10:24:24.341Z,43.71
2023-02-25T10:30:35.143Z,43.65
2023-02-25T10:33:23.907Z,43.17
2023-02-25T10:35:54.898Z,43.69
2023-02-25T10:38:26.514Z,43.69
2023-02-25T10:40:58.021Z,43.22
2023-02-25T10:43:37.677Z,43.63
2023-02-25T10:46:12.693Z,43.58
2023-02-25T10:49:01.024Z,43.55
2023-02-25T10:51:49.265Z,43.20
2023-02-25T10:54:33.602Z,42.78
2023-02-25T10:57:02.454Z,43.14
2023-02-25T10:59:34.007Z,42.93
2023-02-25T11:02:07.962Z,42.53
2023-02-25T11:04:40.033Z,42.60
2023-02-25T11:07:27.413Z,43.06
2023-02-25T11:10:19.520Z,42.89
2023-02-25T11:13:01.362Z,42.62
2023-02-25T11:15:56.311Z,43.23
2023-02-25T11:18:32.063Z,43.07
2023-02-25T11:21:34.778Z,43.15
2023-02-25T11:24:09.145Z,42.63
2023-02-25T11:26:39.452Z,42.62
2023-02-25T11:29:20.239Z,42.36
2023-02-25T11:31:50.605Z,42.24
2023-02-25T11:34:26.313Z,42.69
2023-02-25T11:37:16.605Z,42.28
2023-02-25T11:40:00.449Z,42.46
2023-02-25T11:42:31.492Z,42.25
2023-02-25T11:45:08.294Z,41.80
2023-02-25T11:47:50.061Z,42.23
2023-02-25T11:50:25.130Z,41.99
2023-02-25T11:53:03.350Z,41.54
2023-02-25T11:55:56.383Z,41.40
2023-02-25T11:58:37.364Z,41.12
2023-02-25T12:01:13.540Z,41.16
2023-02-25T12:04:11.170Z,41.53
2023-02-25T12:06:47.043Z,40.84
2023-02-25T12:09:47.261Z,40.78
2023-02-25T12:13:20.912Z,40.00
2023-02-25T12:16:26.617Z,39.97
2023-02-25T12:19:32.204Z,40.45
2023-02-25T12:23:01.164Z,40.73
2023-02-25T12:26:08.735Z,41.14
2023-02-25T12:29:17.767Z,41.32
2023-02-25T12:32:40.578Z,41.26
2023-02-25T12:36:07.114Z,41.27
2023-02-25T12:39:34.196Z,41.19
2023-02-25T12:42:16.203Z,40.85
2023-02-25T12:45:35.345Z,41.07
2023-02-25T12:48:41.531Z,39.99
2023-02-25T12:51:58.316Z,40.05
2023-02-25T13:02:09.021Z,39.71
2023-02-25T13:08:21.912Z,38.48
2023-02-25T13:11:16.681Z,38.68
2023-02-25T13:14:45.030Z,38.80
2023-02-25T13:17:46.532Z,38.90
2023-02-25T13:20:48.117Z,38.13
2023-02-25T13:24:04.771Z,38.73
2023-02-25T13:27:09.032Z,39.02
2023-02-25T13:30:18.726Z,39.03
2023-02-25T13:33:25.909Z,38.90
2023-02-25T13:40:27.174Z,38.20
2023-02-25T13:46:55.097Z,38.17
2023-02-25T13:49:57.984Z,38.39
2023-02-25T13:52:57.799Z,38.17
2023-02-25T13:55:55.627Z,37.58
2023-02-25T13:58:35.624Z,37.69
2023-02-25T14:01:18.859Z,37.90
2023-02-25T14:04:30.201Z,37.47
2023-02-25T14:07:30.422Z,37.52
2023-02-25T14:10:06.765Z,37.80
2023-02-25T14:12:45.325Z,37.85
2023-02-25T14:15:46.917Z,37.72
2023-02-25T14:18:38.364Z,37.59
2023-02-25T14:21:24.394Z,37.24
2023-02-25T14:24:08.972Z,37.43
2023-02-25T14:26:42.277Z,37.57
2023-02-25T14:29:22.590Z,37.53
2023-02-25T14:32:26.386Z,37.57
2023-02-25T14:35:16.711Z,37.28
2023-02-25T14:37:52.394Z,37.07
2023-02-25T14:40:31.672Z,37.26
2023-02-25T14:43:17.537Z,37.38
2023-02-25T14:45:49.029Z,37.35
2023-02-25T14:48:22.610Z,36.67
2023-02-25T14:50:52.302Z,36.45
2023-02-25T14:53:49.572Z,35.90
2023-02-25T14:56:49.246Z,35.86
2023-02-25T15:00:04.958Z,36.25
2023-02-25T15:03:05.474Z,36.76
2023-02-25T15:05:59.421Z,36.83
2023-02-25T15:08:46.099Z,37.53
2023-02-25T15:11:22.902Z,38.02
2023-02-25T15:14:41.925Z,38.10
2023-02-25T15:17:52.762Z,39.01
2023-02-25T15:20:31.820Z,39.06
2023-02-25T15:23:09.533Z,39.44
2023-02-25T15:25:53.867Z,39.58
2023-02-25T15:28:48.235Z,39.94
2023-02-25T15:31:36.299Z,40.08
2023-02-25T15:34:37.113Z,40.25
2023-02-25T15:37:33.499Z,40.79
2023-02-25T15:40:22.104Z,41.01
2023-02-25T15:42:56.335Z,40.84
2023-02-25T15:45:51.285Z,40.89
2023-02-25T15:48:44.039Z,41.19
2023-02-25T15:51:15.065Z,41.25
2023-02-25T15:53:56.217Z,41.07
2023-02-25T15:56:33.205Z,40.68
2023-02-25T15:59:02.895Z,40.79
2023-02-25T16:01:51.430Z,40.85
2023-02-25T16:04:57.604Z,41.04
2023-02-25T16:07:32.466Z,41.21
2023-02-25T16:10:08.317Z,41.28
2023-02-25T16:12:44.628Z,41.12
2023-02-25T16:15:15.594Z,41.48
2023-02-25T16:17:52.826Z,41.58
2023-02-25T16:20:24.438Z,41.54
2023-02-25T16:22:55.884Z,41.76
2023-02-25T16:25:30.165Z,41.99
2023-02-25T16:28:16.782Z,41.78
2023-02-25T16:30:50.246Z,42.29
2023-02-25T16:33:28.166Z,42.37
2023-02-25T16:36:08.193Z,42.24
2023-02-25T16:38:50.840Z,42.06
2023-02-25T16:41:36.339Z,41.09
2023-02-25T16:44:08.017Z,41.00
2023-02-25T16:46:39.382Z,40.92
2023-02-25T16:49:13.395Z,41.05
2023-02-25T16:51:52.646Z,41.12
2023-02-25T16:54:29.150Z,41.18
2023-02-25T16:57:21.180Z,41.20
2023-02-25T17:00:00.631Z,41.14
2023-02-25T17:02:31.599Z,41.08
2023-02-25T17:04:59.675Z,41.04
2023-02-25T17:07:34.771Z,41.02
2023-02-25T17:10:07.528Z,41.40
2023-02-25T17:12:41.529Z,41.51
2023-02-25T17:15:19.150Z,41.42
2023-02-25T17:17:47.954Z,41.54
2023-02-25T17:20:37.777Z,41.53
2023-02-25T17:23:08.789Z,41.94
2023-02-25T17:25:41.100Z,41.69
2023-02-25T17:28:30.191Z,41.91
2023-02-25T17:31:07.069Z,41.99
2023-02-25T17:33:38.650Z,42.01
2023-02-25T17:36:17.579Z,42.18
2023-02-25T17:38:59.263Z,42.30
2023-02-25T17:41:28.198Z,42.23
2023-02-25T17:44:07.854Z,42.46
2023-02-25T17:46:41.531Z,42.41
2023-02-25T17:49:21.375Z,42.35
2023-02-25T17:51:55.661Z,42.37
2023-02-25T17:54:25.061Z,42.39
2023-02-25T17:56:56.741Z,42.50
2023-02-25T17:59:36.799Z,42.46
2023-02-25T18:02:05.602Z,42.51
2023-02-25T18:04:35.053Z,42.67
2023-02-25T18:07:22.120Z,43.01
2023-02-25T18:09:51.056Z,43.16
2023-02-25T18:12:24.310Z,42.96
2023-02-25T18:14:55.381Z,43.42
2023-02-25T18:17:26.809Z,43.53
2023-02-25T18:19:56.553Z,43.58
2023-02-25T18:22:32.601Z,43.48
2023-02-25T18:25:02.632Z,43.76
2023-02-25T18:27:32.856Z,43.39
2023-02-25T18:30:18.270Z,43.67
2023-02-25T18:32:47.758Z,43.87
2023-02-25T18:35:16.525Z,43.52
2023-02-25T18:37:48.788Z,43.87
2023-02-25T18:40:19.014Z,43.80
2023-02-25T18:42:50.112Z,43.79
2023-02-25T18:45:23.409Z,43.94
2023-02-25T18:47:58.237Z,43.73
2023-02-25T18:50:27.334Z,44.01
2023-02-25T18:52:58.000Z,43.93
2023-02-25T18:55:35.546Z,44.02
2023-02-25T18:58:05.049Z,43.85
2023-02-25T19:00:37.142Z,43.91
2023-02-25T19:03:05.403Z,44.03
2023-02-25T19:05:34.415Z,44.15
2023-02-25T19:08:04.668Z,43.95
2023-02-25T19:10:34.707Z,44.35
2023-02-25T19:13:04.301Z,44.40
2023-02-25T19:15:38.369Z,44.19
2023-02-25T19:18:07.405Z,44.07
2023-02-25T19:20:35.442Z,44.08
2023-02-25T19:23:04.565Z,44.10
2023-02-25T19:25:35.510Z,44.18
2023-02-25T19:28:07.493Z,44.31
2023-02-25T19:30:44.518Z,44.37
2023-02-25T19:33:13.325Z,43.95
2023-02-25T19:35:43.579Z,44.08
2023-02-25T19:38:15.008Z,43.90
2023-02-25T19:40:50.037Z,44.04
2023-02-25T19:43:22.047Z,44.31
2023-02-25T19:45:54.458Z,43.97
2023-02-25T19:48:22.953Z,44.11
2023-02-25T19:50:52.026Z,43.88
2023-02-25T19:53:23.624Z,44.39
2023-02-25T19:55:56.946Z,44.15
2023-02-25T19:58:28.143Z,44.28
2023-02-25T20:01:04.430Z,44.36
2023-02-25T20:03:34.058Z,44.59
2023-02-25T20:06:07.960Z,44.62
2023-02-25T20:08:40.947Z,44.50
2023-02-25T20:11:10.308Z,44.60
2023-02-25T20:13:39.823Z,44.83
2023-02-25T20:16:12.958Z,45.07
2023-02-25T20:18:44.298Z,45.08
2023-02-25T20:21:12.876Z,45.20
2023-02-25T20:23:41.403Z,45.13
2023-02-25T20:26:15.459Z,45.01
2023-02-25T20:28:46.803Z,45.10
2023-02-25T20:31:21.250Z,45.22
2023-02-25T20:33:50.975Z,45.49
2023-02-25T20:36:21.283Z,45.42
2023-02-25T20:39:02.469Z,45.54
2023-02-25T20:41:33.501Z,45.50
2023-02-25T20:44:02.336Z,45.57
2023-02-25T20:46:32.475Z,45.66
2023-02-25T20:49:01.190Z,45.61
2023-02-25T20:51:30.030Z,45.78
2023-02-25T20:53:58.441Z,45.78
2023-02-25T20:56:30.608Z,46.00
2023-02-25T20:59:00.232Z,45.78
2023-02-25T21:01:31.709Z,45.94
2023-02-25T21:04:01.029Z,45.72
2023-02-25T21:06:29.498Z,45.77
2023-02-25T21:08:59.832Z,45.89
2023-02-25T21:11:28.284Z,46.06
2023-02-25T21:13:56.409Z,46.01
2023-02-25T21:16:29.870Z,46.12
2023-02-25T21:19:01.216Z,45.96
2023-02-25T21:21:31.696Z,45.98
2023-02-25T21:23:59.936Z,45.91
2023-02-25T21:26:28.692Z,45.89
2023-02-25T21:28:57.266Z,45.98
2023-02-25T21:31:26.406Z,46.05
2023-02-25T21:33:54.693Z,46.13
2023-02-25T21:36:24.532Z,46.13
2023-02-25T21:38:54.235Z,46.04
2023-02-25T21:41:26.379Z,46.01
2023-02-25T21:43:55.750Z,46.16
2023-02-25T21:46:26.173Z,46.23
2023-02-25T21:48:56.268Z,46.33
2023-02-25T21:51:30.812Z,46.28
2023-02-25T21:54:03.143Z,46.05
2023-02-25T21:56:34.258Z,46.33
2023-02-25T21:59:04.118Z,46.42
2023-02-25T22:01:33.267Z,46.49
2023-02-25T22:04:01.592Z,46.29
2023-02-25T22:06:31.038Z,46.69
2023-02-25T22:08:59.277Z,46.68
2023-02-25T22:11:29.490Z,46.87
2023-02-25T22:14:00.159Z,46.90
2023-02-25T22:16:28.832Z,46.76
2023-02-25T22:18:58.418Z,47.06
2023-02-25T22:21:27.196Z,46.92
2023-02-25T22:23:59.367Z,46.99
2023-02-25T22:26:31.799Z,46.97
2023-02-25T22:29:02.567Z,47.00
2023-02-25T22:31:34.223Z,47.04
2023-02-25T22:34:02.314Z,47.11
2023-02-25T22:36:32.306Z,47.01
2023-02-25T22:39:01.674Z,47.53
2023-02-25T22:41:30.924Z,47.30
2023-02-25T22:44:00.533Z,47.47
2023-02-25T22:46:29.660Z,47.52
2023-02-25T22:48:57.767Z,47.52
2023-02-25T22:51:31.850Z,47.56
2023-02-25T22:54:04.915Z,47.55
2023-02-25T22:56:36.642Z,47.49
2023-02-25T22:59:08.306Z,47.31
2023-02-25T23:01:38.083Z,47.55
2023-02-25T23:04:08.086Z,47.50
2023-02-25T23:06:44.881Z,47.35
2023-02-25T23:09:15.173Z,47.54
2023-02-25T23:11:46.057Z,47.52
2023-02-25T23:14:19.038Z,47.45
2023-02-25T23:16:49.462Z,47.54
2023-02-25T23:19:21.676Z,47.71
2023-02-25T23:21:50.485Z,47.59
2023-02-25T23:24:22.129Z,47.86
2023-02-25T23:26:53.661Z,47.66
2023-02-25T23:29:23.366Z,47.95
2023-02-25T23:31:51.959Z,47.69
2023-02-25T23:34:22.159Z,47.84
2023-02-25T23:36:58.265Z,47.84
2023-02-25T23:39:27.845Z,47.48
2023-02-25T23:41:59.542Z,47.84
2023-02-25T23:44:29.536Z,47.92
2023-02-25T23:47:23.293Z,47.90
2023-02-25T23:49:55.779Z,47.71
2023-02-25T23:52:24.321Z,48.22
2023-02-25T23:54:56.126Z,48.40
2023-02-25T23:57:26.363Z,48.12
2023-02-25T23:59:55.904Z,48.17
